Time,TemperatureF,DewpointF,PressureIn,WindDirection,WindDirectionDegrees,WindSpeedMPH,WindSpeedGustMPH,Humidity,HourlyPrecipIn,Conditions,Clouds,dailyrainin,SoftwareType,DateUTC
2013-09-25 00:05:00,48.3,46.7,29.89,ESE,103,0.0,0.0,94,0.00,,,0.00,Wunderground v.1.13,2013-09-25 05:05:00,
2013-09-25 00:10:00,48.2,46.6,29.89,ESE,103,0.0,0.0,94,0.00,,,0.00,Wunderground v.1.13,2013-09-25 05:10:00,
2013-09-25 00:20:00,48.0,46.4,29.89,ESE,103,0.0,0.0,94,0.00,,,0.00,Wunderground v.1.13,2013-09-25 05:20:00,
2013-09-25 00:30:00,48.2,46.8,29.89,ESE,103,0.0,0.0,95,0.00,,,0.00,Wunderground v.1.13,2013-09-25 05:30:00,
2013-09-25 00:35:00,48.2,46.6,29.89,ESE,103,0.0,0.0,94,0.00,,,0.00,Wunderground v.1.13,2013-09-25 05:35:00,
2013-09-25 00:45:00,47.9,46.3,29.89,ESE,103,0.0,0.0,94,0.00,,,0.00,Wunderground v.1.13,2013-09-25 05:45:00,
2013-09-25 00:50:00,47.7,46.1,29.89,ESE,103,0.0,0.0,94,0.00,,,0.00,Wunderground v.1.13,2013-09-25 05:50:00,
2013-09-25 01:00:00,47.3,45.7,29.90,ESE,103,0.0,0.0,94,0.00,,,0.00,Wunderground v.1.13,2013-09-25 06:00:00,
2013-09-25 01:05:00,47.3,45.9,29.90,ESE,103,0.0,0.0,95,0.00,,,0.00,Wunderground v.1.13,2013-09-25 06:05:00,
2013-09-25 01:15:00,47.4,46.0,29.90,ESE,103,0.0,0.0,95,0.00,,,0.00,Wunderground v.1.13,2013-09-25 06:15:00,
2013-09-25 01:25:00,47.3,45.9,29.90,ESE,103,0.0,0.0,95,0.00,,,0.00,Wunderground v.1.13,2013-09-25 06:25:00,
2013-09-25 01:35:00,47.1,45.7,29.89,ESE,103,0.0,0.0,95,0.00,,,0.00,Wunderground v.1.13,2013-09-25 06:35:00,
2013-09-25 01:40:00,47.0,45.6,29.89,ESE,103,0.0,0.0,95,0.00,,,0.00,Wunderground v.1.13,2013-09-25 06:40:00,
2013-09-25 01:50:00,46.7,45.3,29.89,ESE,103,0.0,0.0,95,0.00,,,0.00,Wunderground v.1.13,2013-09-25 06:50:00,
2013-09-25 01:55:00,46.5,45.1,29.89,ESE,103,0.0,0.0,95,0.00,,,0.00,Wunderground v.1.13,2013-09-25 06:55:00,
2013-09-25 02:05:00,46.2,44.8,29.89,ESE,103,0.0,0.0,95,0.00,,,0.00,Wunderground v.1.13,2013-09-25 07:05:00,
2013-09-25 02:10:00,46.1,44.7,29.89,ESE,103,0.0,0.0,95,0.00,,,0.00,Wunderground v.1.13,2013-09-25 07:10:00,
2013-09-25 02:20:00,45.8,44.4,29.89,ESE,103,0.0,0.0,95,0.00,,,0.00,Wunderground v.1.13,2013-09-25 07:20:00,
2013-09-25 02:30:00,45.8,44.4,29.89,ESE,103,0.0,0.0,95,0.00,,,0.00,Wunderground v.1.13,2013-09-25 07:30:00,
2013-09-25 02:35:00,45.7,44.4,29.89,ESE,103,0.0,0.0,95,0.00,,,0.00,Wunderground v.1.13,2013-09-25 07:35:00,
2013-09-25 02:40:00,45.5,44.2,29.89,ESE,103,0.0,0.0,95,0.00,,,0.00,Wunderground v.1.13,2013-09-25 07:40:00,
2013-09-25 02:50:00,45.4,44.3,29.89,ESE,103,0.0,0.0,96,0.00,,,0.00,Wunderground v.1.13,2013-09-25 07:50:00,
2013-09-25 02:55:00,45.2,43.9,29.89,ESE,103,0.0,0.0,95,0.00,,,0.00,Wunderground v.1.13,2013-09-25 07:55:00,
2013-09-25 03:05:00,44.9,43.8,29.89,ESE,103,0.0,0.0,96,0.00,,,0.00,Wunderground v.1.13,2013-09-25 08:05:00,
2013-09-25 03:10:00,44.9,43.8,29.89,ESE,103,0.0,0.0,96,0.00,,,0.00,Wunderground v.1.13,2013-09-25 08:10:00,
2013-09-25 03:20:00,44.8,43.7,29.89,ESE,103,0.0,0.0,96,0.00,,,0.00,Wunderground v.1.13,2013-09-25 08:20:00,
2013-09-25 03:30:00,45.1,44.0,29.89,ESE,103,0.0,0.0,96,0.00,,,0.00,Wunderground v.1.13,2013-09-25 08:30:00,
2013-09-25 03:40:00,45.5,44.4,29.89,ESE,103,0.0,0.0,96,0.00,,,0.00,Wunderground v.1.13,2013-09-25 08:40:00,
2013-09-25 03:50:00,46.0,44.9,29.89,ESE,103,0.0,0.0,96,0.00,,,0.00,Wunderground v.1.13,2013-09-25 08:50:00,
2013-09-25 04:00:00,45.8,44.7,29.89,ESE,103,0.0,0.0,96,0.00,,,0.00,Wunderground v.1.13,2013-09-25 09:00:00,
2013-09-25 04:05:00,46.0,44.9,29.89,ESE,103,0.0,0.0,96,0.00,,,0.00,Wunderground v.1.13,2013-09-25 09:05:00,
2013-09-25 04:15:00,46.1,45.0,29.90,ESE,103,0.0,0.0,96,0.00,,,0.00,Wunderground v.1.13,2013-09-25 09:15:00,
2013-09-25 04:20:00,46.2,45.1,29.90,ESE,103,0.0,0.0,96,0.00,,,0.00,Wunderground v.1.13,2013-09-25 09:20:00,
2013-09-25 04:30:00,46.4,45.3,29.90,ESE,103,0.0,0.0,96,0.00,,,0.00,Wunderground v.1.13,2013-09-25 09:30:00,
2013-09-25 04:40:00,46.4,45.3,29.90,ESE,103,0.0,0.0,96,0.00,,,0.00,Wunderground v.1.13,2013-09-25 09:40:00,
2013-09-25 04:50:00,46.2,45.1,29.90,ESE,103,0.0,0.0,96,0.00,,,0.00,Wunderground v.1.13,2013-09-25 09:50:00,
2013-09-25 04:55:00,46.1,45.0,29.90,ESE,103,0.0,0.0,96,0.00,,,0.00,Wunderground v.1.13,2013-09-25 09:55:00,
2013-09-25 05:00:00,46.0,44.9,29.90,ESE,103,0.0,0.0,96,0.00,,,0.00,Wunderground v.1.13,2013-09-25 10:00:00,
2013-09-25 05:05:00,45.8,44.7,29.90,ESE,103,0.0,0.0,96,0.00,,,0.00,Wunderground v.1.13,2013-09-25 10:05:00,
2013-09-25 05:15:00,46.0,44.9,29.90,ESE,103,0.0,0.0,96,0.00,,,0.00,Wunderground v.1.13,2013-09-25 10:15:00,
2013-09-25 05:20:00,46.0,44.9,29.90,ESE,103,0.0,0.0,96,0.00,,,0.00,Wunderground v.1.13,2013-09-25 10:20:00,
2013-09-25 05:30:00,46.1,45.3,29.90,ESE,103,0.0,0.0,97,0.00,,,0.00,Wunderground v.1.13,2013-09-25 10:30:00,
2013-09-25 05:40:00,46.8,46.0,29.90,ESE,103,0.0,0.0,97,0.00,,,0.00,Wunderground v.1.13,2013-09-25 10:40:00,
2013-09-25 05:50:00,47.0,46.2,29.91,ESE,103,0.0,0.0,97,0.00,,,0.00,Wunderground v.1.13,2013-09-25 10:50:00,
2013-09-25 05:55:00,47.0,46.2,29.91,ESE,103,0.0,0.0,97,0.00,,,0.00,Wunderground v.1.13,2013-09-25 10:55:00,
2013-09-25 06:00:00,47.0,46.2,29.91,ESE,103,0.0,0.0,97,0.00,,,0.00,Wunderground v.1.13,2013-09-25 11:00:00,
2013-09-25 06:05:00,46.8,45.7,29.91,ENE,73,0.0,0.0,96,0.00,,,0.00,Wunderground v.1.13,2013-09-25 11:05:00,
2013-09-25 06:20:00,47.0,46.2,29.91,ENE,69,0.0,0.0,97,0.00,,,0.00,Wunderground v.1.13,2013-09-25 11:20:00,
2013-09-25 06:25:00,47.0,46.2,29.91,ENE,69,0.0,0.0,97,0.00,,,0.00,Wunderground v.1.13,2013-09-25 11:25:00,
2013-09-25 06:30:00,46.8,46.0,29.91,ENE,69,0.0,0.0,97,0.00,,,0.00,Wunderground v.1.13,2013-09-25 11:30:00,
2013-09-25 06:40:00,46.8,46.0,29.91,ENE,69,0.0,3.0,97,0.00,,,0.00,Wunderground v.1.13,2013-09-25 11:40:00,
2013-09-25 06:50:00,47.0,46.2,29.91,ENE,69,0.0,3.0,97,0.00,,,0.00,Wunderground v.1.13,2013-09-25 11:50:00,
2013-09-25 06:55:00,47.0,46.2,29.91,ENE,69,0.0,3.0,97,0.00,,,0.00,Wunderground v.1.13,2013-09-25 11:55:00,
2013-09-25 07:00:00,47.0,46.2,29.91,ENE,69,0.0,3.0,97,0.00,,,0.00,Wunderground v.1.13,2013-09-25 12:00:00,
2013-09-25 07:05:00,47.1,46.3,29.91,ENE,69,0.0,0.0,97,0.00,,,0.00,Wunderground v.1.13,2013-09-25 12:05:00,
2013-09-25 07:15:00,47.1,46.3,29.92,ENE,69,0.0,0.0,97,0.00,,,0.00,Wunderground v.1.13,2013-09-25 12:15:00,
2013-09-25 07:25:00,47.3,46.5,29.92,ENE,69,0.0,0.0,97,0.00,,,0.00,Wunderground v.1.13,2013-09-25 12:25:00,
2013-09-25 07:30:00,47.3,46.5,29.92,ENE,69,0.0,0.0,97,0.00,,,0.00,Wunderground v.1.13,2013-09-25 12:30:00,
2013-09-25 07:35:00,47.4,46.6,29.92,ENE,69,0.0,0.0,97,0.00,,,0.00,Wunderground v.1.13,2013-09-25 12:35:00,
2013-09-25 07:45:00,48.2,47.4,29.93,ENE,69,0.0,0.0,97,0.00,,,0.01,Wunderground v.1.13,2013-09-25 12:45:00,
2013-09-25 07:50:00,48.8,48.3,29.93,ENE,69,0.0,0.0,98,0.00,,,0.01,Wunderground v.1.13,2013-09-25 12:50:00,
2013-09-25 07:55:00,49.2,48.7,29.93,ENE,69,0.0,0.0,98,0.00,,,0.01,Wunderground v.1.13,2013-09-25 12:55:00,
2013-09-25 08:05:00,50.1,49.6,29.92,ENE,69,0.0,0.0,98,0.00,,,0.01,Wunderground v.1.13,2013-09-25 13:05:00,
2013-09-25 08:15:00,51.3,50.8,29.92,ENE,69,0.0,0.0,98,0.00,,,0.01,Wunderground v.1.13,2013-09-25 13:15:00,
2013-09-25 08:20:00,51.7,51.2,29.92,ENE,69,0.0,0.0,98,0.00,,,0.01,Wunderground v.1.13,2013-09-25 13:20:00,
2013-09-25 08:25:00,52.5,52.0,29.92,ENE,69,0.0,0.0,98,0.00,,,0.01,Wunderground v.1.13,2013-09-25 13:25:00,
2013-09-25 08:35:00,53.2,52.7,29.93,ENE,66,0.0,0.0,98,0.00,,,0.01,Wunderground v.1.13,2013-09-25 13:35:00,
2013-09-25 08:40:00,53.5,52.9,29.93,ENE,65,0.0,2.0,98,0.00,,,0.01,Wunderground v.1.13,2013-09-25 13:40:00,
2013-09-25 08:45:00,54.1,53.5,29.92,NE,55,0.0,0.0,98,0.00,,,0.01,Wunderground v.1.13,2013-09-25 13:45:00,
2013-09-25 08:50:00,54.5,53.9,29.92,NE,54,0.0,0.0,98,0.00,,,0.01,Wunderground v.1.13,2013-09-25 13:50:00,
2013-09-25 09:00:00,55.7,55.1,29.92,NE,54,0.0,0.0,98,0.00,,,0.01,Wunderground v.1.13,2013-09-25 14:00:00,
2013-09-25 09:05:00,56.5,55.9,29.92,NE,53,0.0,2.0,98,0.00,,,0.01,Wunderground v.1.13,2013-09-25 14:05:00,
2013-09-25 09:15:00,57.5,56.7,29.92,NE,53,0.0,2.0,97,0.00,,,0.01,Wunderground v.1.13,2013-09-25 14:15:00,
2013-09-25 09:20:00,58.0,57.2,29.92,NE,50,0.0,2.0,97,0.00,,,0.01,Wunderground v.1.13,2013-09-25 14:20:00,
2013-09-25 09:30:00,58.9,57.8,29.92,NE,50,0.0,2.0,96,0.00,,,0.01,Wunderground v.1.13,2013-09-25 14:30:00,
2013-09-25 09:40:00,59.8,58.4,29.92,NE,51,0.0,2.0,95,0.00,,,0.01,Wunderground v.1.13,2013-09-25 14:40:00,
2013-09-25 09:45:00,59.9,58.2,29.92,NE,51,0.0,2.0,94,0.00,,,0.01,Wunderground v.1.13,2013-09-25 14:45:00,
2013-09-25 09:50:00,60.5,58.5,29.92,NE,51,0.0,2.0,93,0.00,,,0.01,Wunderground v.1.13,2013-09-25 14:50:00,
2013-09-25 10:00:00,61.0,57.7,29.92,NE,52,0.0,2.0,89,0.00,,,0.01,Wunderground v.1.13,2013-09-25 15:00:00,
2013-09-25 10:05:00,61.5,57.6,29.92,ENE,57,0.0,5.0,87,0.00,,,0.01,Wunderground v.1.13,2013-09-25 15:05:00,
2013-09-25 10:10:00,61.8,57.2,29.92,ENE,57,0.0,5.0,85,0.00,,,0.01,Wunderground v.1.13,2013-09-25 15:10:00,
2013-09-25 10:20:00,62.6,56.3,29.92,East,101,0.0,5.0,80,0.00,,,0.01,Wunderground v.1.13,2013-09-25 15:20:00,
2013-09-25 10:25:00,62.9,57.0,29.92,ESE,108,0.0,5.0,81,0.00,,,0.01,Wunderground v.1.13,2013-09-25 15:25:00,
2013-09-25 10:35:00,62.9,56.3,29.92,East,100,0.0,1.0,79,0.00,,,0.01,Wunderground v.1.13,2013-09-25 15:35:00,
2013-09-25 10:40:00,63.2,53.3,29.92,ESE,111,0.0,1.0,70,0.00,,,0.01,Wunderground v.1.13,2013-09-25 15:40:00,
2013-09-25 10:45:00,63.2,54.8,29.92,ESE,111,0.0,1.0,74,0.00,,,0.01,Wunderground v.1.13,2013-09-25 15:45:00,
2013-09-25 10:50:00,63.2,55.1,29.92,East,99,0.0,1.0,75,0.00,,,0.01,Wunderground v.1.13,2013-09-25 15:50:00,
2013-09-25 11:00:00,63.1,53.9,29.92,East,96,0.0,1.0,72,0.00,,,0.01,Wunderground v.1.13,2013-09-25 16:00:00,
2013-09-25 11:05:00,63.2,54.0,29.92,East,90,0.0,8.0,72,0.00,,,0.01,Wunderground v.1.13,2013-09-25 16:05:00,
2013-09-25 11:15:00,63.4,53.8,29.92,East,98,0.0,8.0,71,0.00,,,0.01,Wunderground v.1.13,2013-09-25 16:15:00,
2013-09-25 11:20:00,64.2,54.2,29.92,East,101,1.0,8.0,70,0.00,,,0.01,Wunderground v.1.13,2013-09-25 16:20:00,
2013-09-25 11:30:00,64.7,53.5,29.92,North,355,1.0,8.0,67,0.00,,,0.01,Wunderground v.1.13,2013-09-25 16:30:00,
2013-09-25 11:40:00,66.0,52.6,29.92,NE,55,1.0,1.0,62,0.00,,,0.01,Wunderground v.1.13,2013-09-25 16:40:00,
2013-09-25 11:50:00,65.5,52.1,29.92,ENE,65,0.0,5.0,62,0.00,,,0.01,Wunderground v.1.13,2013-09-25 16:50:00,
2013-09-25 11:55:00,65.5,53.0,29.92,ENE,65,0.0,5.0,64,0.00,,,0.01,Wunderground v.1.13,2013-09-25 16:55:00,
2013-09-25 12:00:00,65.5,52.1,29.92,NNE,15,0.0,5.0,62,0.00,,,0.01,Wunderground v.1.13,2013-09-25 17:00:00,
2013-09-25 12:05:00,65.5,51.7,29.92,NE,35,0.0,8.0,61,0.00,,,0.01,Wunderground v.1.13,2013-09-25 17:05:00,
2013-09-25 12:15:00,65.2,51.8,29.91,ESE,103,0.0,8.0,62,0.00,,,0.01,Wunderground v.1.13,2013-09-25 17:15:00,
2013-09-25 12:20:00,65.6,51.8,29.91,East,87,0.0,8.0,61,0.00,,,0.01,Wunderground v.1.13,2013-09-25 17:20:00,
2013-09-25 12:30:00,66.6,51.4,29.91,SE,125,1.0,8.0,58,0.00,,,0.01,Wunderground v.1.13,2013-09-25 17:30:00,
2013-09-25 12:35:00,66.9,52.1,29.91,ESE,103,1.0,7.0,59,0.00,,,0.01,Wunderground v.1.13,2013-09-25 17:35:00,
2013-09-25 12:40:00,66.8,51.1,29.91,SE,145,1.0,1.0,57,0.00,,,0.01,Wunderground v.1.13,2013-09-25 17:40:00,
2013-09-25 12:50:00,67.8,52.9,29.91,NE,49,0.0,7.0,59,0.00,,,0.01,Wunderground v.1.13,2013-09-25 17:50:00,
2013-09-25 12:55:00,67.9,53.5,29.91,NE,51,0.0,7.0,60,0.00,,,0.01,Wunderground v.1.13,2013-09-25 17:55:00,
2013-09-25 13:05:00,68.4,53.5,29.90,NE,51,1.0,1.0,59,0.00,,,0.01,Wunderground v.1.13,2013-09-25 18:05:00,
2013-09-25 13:15:00,68.4,52.1,29.90,NE,37,0.0,8.0,56,0.00,,,0.01,Wunderground v.1.13,2013-09-25 18:15:00,
2013-09-25 13:25:00,68.4,52.6,29.90,North,5,1.0,1.0,57,0.00,,,0.01,Wunderground v.1.13,2013-09-25 18:25:00,
2013-09-25 13:35:00,68.3,51.5,29.89,ESE,109,1.0,1.0,55,0.00,,,0.01,Wunderground v.1.13,2013-09-25 18:35:00,
2013-09-25 13:45:00,67.8,51.0,29.89,East,98,1.0,1.0,55,0.00,,,0.01,Wunderground v.1.13,2013-09-25 18:45:00,
2013-09-25 13:50:00,68.1,52.3,29.89,ESE,117,1.0,1.0,57,0.00,,,0.01,Wunderground v.1.13,2013-09-25 18:50:00,
2013-09-25 14:00:00,69.1,51.8,29.89,ESE,112,0.0,6.0,54,0.00,,,0.01,Wunderground v.1.13,2013-09-25 19:00:00,
2013-09-25 14:05:00,69.1,51.2,29.89,ESE,113,0.0,8.0,53,0.00,,,0.01,Wunderground v.1.13,2013-09-25 19:05:00,
2013-09-25 14:20:00,69.3,50.9,29.89,ESE,107,0.0,8.0,52,0.00,,,0.01,Wunderground v.1.13,2013-09-25 19:20:00,
2013-09-25 14:30:00,69.6,51.7,29.89,NE,40,1.0,1.0,53,0.00,,,0.01,Wunderground v.1.13,2013-09-25 19:30:00,
2013-09-25 14:40:00,69.8,50.9,29.89,East,96,0.0,6.0,51,0.00,,,0.01,Wunderground v.1.13,2013-09-25 19:40:00,
2013-09-25 14:50:00,69.4,51.5,29.89,East,96,0.0,6.0,53,0.00,,,0.01,Wunderground v.1.13,2013-09-25 19:50:00,
2013-09-25 14:55:00,69.4,51.5,29.89,East,96,0.0,6.0,53,0.00,,,0.01,Wunderground v.1.13,2013-09-25 19:55:00,
2013-09-25 15:05:00,69.8,50.9,29.88,ENE,69,0.0,7.0,51,0.00,,,0.01,Wunderground v.1.13,2013-09-25 20:05:00,
2013-09-25 15:15:00,69.9,52.5,29.88,ENE,71,0.0,7.0,54,0.00,,,0.01,Wunderground v.1.13,2013-09-25 20:15:00,
2013-09-25 15:20:00,69.9,52.0,29.88,ENE,71,0.0,7.0,53,0.00,,,0.01,Wunderground v.1.13,2013-09-25 20:20:00,
2013-09-25 15:30:00,69.9,51.5,29.88,ENE,71,0.0,7.0,52,0.00,,,0.01,Wunderground v.1.13,2013-09-25 20:30:00,
2013-09-25 15:35:00,69.8,51.4,29.88,ENE,72,0.0,4.0,52,0.00,,,0.01,Wunderground v.1.13,2013-09-25 20:35:00,
2013-09-25 15:40:00,69.8,51.9,29.88,East,84,0.0,4.0,53,0.00,,,0.01,Wunderground v.1.13,2013-09-25 20:40:00,
2013-09-25 15:50:00,69.6,50.7,29.87,East,92,0.0,4.0,51,0.00,,,0.01,Wunderground v.1.13,2013-09-25 20:50:00,
2013-09-25 15:55:00,69.6,51.2,29.87,ENE,78,0.0,4.0,52,0.00,,,0.01,Wunderground v.1.13,2013-09-25 20:55:00,
2013-09-25 16:05:00,69.6,51.7,29.87,ENE,78,0.0,6.0,53,0.00,,,0.01,Wunderground v.1.13,2013-09-25 21:05:00,
2013-09-25 16:15:00,69.3,51.4,29.87,East,87,1.0,1.0,53,0.00,,,0.01,Wunderground v.1.13,2013-09-25 21:15:00,
2013-09-25 16:25:00,69.1,51.2,29.87,East,96,0.0,6.0,53,0.00,,,0.01,Wunderground v.1.13,2013-09-25 21:25:00,
2013-09-25 16:30:00,68.9,51.6,29.87,East,96,0.0,6.0,54,0.00,,,0.01,Wunderground v.1.13,2013-09-25 21:30:00,
2013-09-25 16:35:00,68.6,51.3,29.87,ENE,71,0.0,9.0,54,0.00,,,0.01,Wunderground v.1.13,2013-09-25 21:35:00,
2013-09-25 16:45:00,68.3,51.5,29.87,NNE,28,0.0,9.0,55,0.00,,,0.01,Wunderground v.1.13,2013-09-25 21:45:00,
2013-09-25 16:50:00,68.1,50.8,29.87,NNE,28,0.0,9.0,54,0.00,,,0.01,Wunderground v.1.13,2013-09-25 21:50:00,
2013-09-25 16:55:00,67.9,51.1,29.87,NE,44,0.0,9.0,55,0.00,,,0.01,Wunderground v.1.13,2013-09-25 21:55:00,
2013-09-25 17:00:00,67.8,52.0,29.87,NE,44,0.0,9.0,57,0.00,,,0.01,Wunderground v.1.13,2013-09-25 22:00:00,
2013-09-25 17:05:00,67.6,51.3,29.87,NE,44,0.0,5.0,56,0.00,,,0.01,Wunderground v.1.13,2013-09-25 22:05:00,
2013-09-25 17:15:00,67.1,51.4,29.87,NE,45,0.0,5.0,57,0.00,,,0.01,Wunderground v.1.13,2013-09-25 22:15:00,
2013-09-25 17:25:00,66.6,51.4,29.87,NE,46,0.0,5.0,58,0.00,,,0.01,Wunderground v.1.13,2013-09-25 22:25:00,
2013-09-25 17:30:00,66.4,51.2,29.87,NE,46,0.0,5.0,58,0.00,,,0.01,Wunderground v.1.13,2013-09-25 22:30:00,
2013-09-25 17:40:00,66.0,51.3,29.87,East,82,0.0,2.0,59,0.00,,,0.01,Wunderground v.1.13,2013-09-25 22:40:00,
2013-09-25 17:45:00,65.8,51.5,29.88,East,82,0.0,2.0,60,0.00,,,0.01,Wunderground v.1.13,2013-09-25 22:45:00,
2013-09-25 17:50:00,65.5,51.7,29.88,East,93,0.0,2.0,61,0.00,,,0.01,Wunderground v.1.13,2013-09-25 22:50:00,
2013-09-25 17:55:00,65.3,51.5,29.88,ENE,75,0.0,2.0,61,0.00,,,0.01,Wunderground v.1.13,2013-09-25 22:55:00,
2013-09-25 18:05:00,64.7,51.4,29.88,ENE,76,0.0,2.0,62,0.00,,,0.01,Wunderground v.1.13,2013-09-25 23:05:00,
2013-09-25 18:15:00,64.2,51.3,29.88,East,90,0.0,2.0,63,0.00,,,0.01,Wunderground v.1.13,2013-09-25 23:15:00,
2013-09-25 18:20:00,63.9,51.5,29.88,East,87,0.0,2.0,64,0.00,,,0.01,Wunderground v.1.13,2013-09-25 23:20:00,
2013-09-25 18:25:00,63.4,51.4,29.88,East,92,0.0,2.0,65,0.00,,,0.01,Wunderground v.1.13,2013-09-25 23:25:00,
2013-09-25 18:35:00,62.7,51.6,29.88,East,94,0.0,5.0,67,0.00,,,0.01,Wunderground v.1.13,2013-09-25 23:35:00,
2013-09-25 18:45:00,62.0,51.3,29.89,East,100,0.0,5.0,68,0.00,,,0.01,Wunderground v.1.13,2013-09-25 23:45:00,
2013-09-25 18:55:00,61.5,51.2,29.89,East,96,0.0,5.0,69,0.00,,,0.01,Wunderground v.1.13,2013-09-25 23:55:00,
2013-09-25 19:00:00,61.2,50.9,29.89,East,96,0.0,5.0,69,0.00,,,0.01,Wunderground v.1.13,2013-09-26 00:00:00,
2013-09-25 19:05:00,60.9,51.0,29.89,East,96,0.0,1.0,70,0.00,,,0.01,Wunderground v.1.13,2013-09-26 00:05:00,
2013-09-25 19:15:00,60.2,50.4,29.90,East,91,0.0,1.0,70,0.00,,,0.01,Wunderground v.1.13,2013-09-26 00:15:00,
2013-09-25 19:20:00,60.1,50.3,29.90,East,91,0.0,1.0,70,0.00,,,0.01,Wunderground v.1.13,2013-09-26 00:20:00,
2013-09-25 19:30:00,59.5,50.1,29.91,East,91,0.0,1.0,71,0.00,,,0.01,Wunderground v.1.13,2013-09-26 00:30:00,
2013-09-25 19:35:00,59.3,49.9,29.91,East,91,0.0,2.0,71,0.00,,,0.01,Wunderground v.1.13,2013-09-26 00:35:00,
2013-09-25 19:40:00,59.0,50.0,29.91,East,90,0.0,2.0,72,0.00,,,0.01,Wunderground v.1.13,2013-09-26 00:40:00,
2013-09-25 19:50:00,58.6,49.6,29.91,ESE,110,0.0,2.0,72,0.00,,,0.01,Wunderground v.1.13,2013-09-26 00:50:00,
2013-09-25 20:00:00,58.1,49.5,29.91,ESE,110,0.0,2.0,73,0.00,,,0.01,Wunderground v.1.13,2013-09-26 01:00:00,
2013-09-25 20:05:00,57.8,49.6,29.91,ESE,110,0.0,1.0,74,0.00,,,0.01,Wunderground v.1.13,2013-09-26 01:05:00,
2013-09-25 20:15:00,57.3,49.4,29.91,ESE,110,0.0,1.0,75,0.00,,,0.01,Wunderground v.1.13,2013-09-26 01:15:00,
2013-09-25 20:20:00,57.2,49.7,29.91,ESE,110,0.0,1.0,76,0.00,,,0.01,Wunderground v.1.13,2013-09-26 01:20:00,
2013-09-25 20:25:00,56.9,49.8,29.91,ESE,110,0.0,1.0,77,0.00,,,0.01,Wunderground v.1.13,2013-09-26 01:25:00,
2013-09-25 20:35:00,56.5,50.1,29.90,ESE,110,0.0,1.0,79,0.00,,,0.01,Wunderground v.1.13,2013-09-26 01:35:00,
2013-09-25 20:40:00,56.3,49.9,29.90,ESE,110,0.0,1.0,79,0.00,,,0.01,Wunderground v.1.13,2013-09-26 01:40:00,
2013-09-25 20:50:00,55.9,49.8,29.90,ESE,110,0.0,1.0,80,0.00,,,0.01,Wunderground v.1.13,2013-09-26 01:50:00,
2013-09-25 20:55:00,55.7,50.0,29.90,ESE,110,0.0,1.0,81,0.00,,,0.01,Wunderground v.1.13,2013-09-26 01:55:00,
2013-09-25 21:05:00,55.4,50.0,29.90,ESE,110,0.0,0.0,82,0.00,,,0.01,Wunderground v.1.13,2013-09-26 02:05:00,
2013-09-25 21:15:00,55.1,50.0,29.90,ESE,110,0.0,0.0,83,0.00,,,0.01,Wunderground v.1.13,2013-09-26 02:15:00,
2013-09-25 21:20:00,55.0,50.3,29.90,ESE,110,0.0,0.0,84,0.00,,,0.01,Wunderground v.1.13,2013-09-26 02:20:00,
2013-09-25 21:30:00,54.7,50.0,29.90,ESE,110,0.0,0.0,84,0.00,,,0.01,Wunderground v.1.13,2013-09-26 02:30:00,
2013-09-25 21:40:00,54.1,49.7,29.90,ESE,110,0.0,0.0,85,0.00,,,0.01,Wunderground v.1.13,2013-09-26 02:40:00,
2013-09-25 21:50:00,53.5,49.7,29.90,ESE,110,0.0,0.0,87,0.00,,,0.01,Wunderground v.1.13,2013-09-26 02:50:00,
2013-09-25 21:55:00,53.1,49.3,29.90,ESE,110,0.0,0.0,87,0.00,,,0.01,Wunderground v.1.13,2013-09-26 02:55:00,
2013-09-25 22:05:00,52.3,48.9,29.90,ESE,110,0.0,0.0,88,0.00,,,0.01,Wunderground v.1.13,2013-09-26 03:05:00,
2013-09-25 22:15:00,51.7,48.3,29.91,ESE,110,0.0,0.0,88,0.00,,,0.01,Wunderground v.1.13,2013-09-26 03:15:00,
2013-09-25 22:20:00,51.4,48.3,29.91,ESE,110,0.0,0.0,89,0.00,,,0.01,Wunderground v.1.13,2013-09-26 03:20:00,
2013-09-25 22:25:00,51.3,48.5,29.91,ESE,110,0.0,0.0,90,0.00,,,0.01,Wunderground v.1.13,2013-09-26 03:25:00,
2013-09-25 22:35:00,50.8,48.3,29.91,ESE,110,0.0,0.0,91,0.00,,,0.01,Wunderground v.1.13,2013-09-26 03:35:00,
2013-09-25 22:40:00,50.8,48.3,29.91,ESE,110,0.0,0.0,91,0.00,,,0.01,Wunderground v.1.13,2013-09-26 03:40:00,
2013-09-25 22:50:00,50.5,48.3,29.91,ESE,110,0.0,0.0,92,0.00,,,0.01,Wunderground v.1.13,2013-09-26 03:50:00,
2013-09-25 22:55:00,50.4,48.2,29.91,ESE,110,0.0,0.0,92,0.00,,,0.01,Wunderground v.1.13,2013-09-26 03:55:00,
2013-09-25 23:05:00,50.1,47.9,29.91,ESE,110,0.0,0.0,92,0.00,,,0.01,Wunderground v.1.13,2013-09-26 04:05:00,
2013-09-25 23:10:00,50.1,47.9,29.91,ESE,110,0.0,0.0,92,0.00,,,0.01,Wunderground v.1.13,2013-09-26 04:10:00,
2013-09-25 23:20:00,49.8,47.9,29.91,ESE,110,0.0,0.0,93,0.00,,,0.01,Wunderground v.1.13,2013-09-26 04:20:00,
2013-09-25 23:25:00,49.6,47.7,29.91,ESE,110,0.0,0.0,93,0.00,,,0.01,Wunderground v.1.13,2013-09-26 04:25:00,
2013-09-25 23:35:00,49.5,47.6,29.91,ESE,110,0.0,0.0,93,0.00,,,0.01,Wunderground v.1.13,2013-09-26 04:35:00,
2013-09-25 23:40:00,49.2,47.3,29.91,ESE,110,0.0,0.0,93,0.00,,,0.01,Wunderground v.1.13,2013-09-26 04:40:00,
2013-09-25 23:45:00,49.1,47.2,29.91,ESE,110,0.0,0.0,93,0.00,,,0.01,Wunderground v.1.13,2013-09-26 04:45:00,
2013-09-25 23:50:00,48.9,47.0,29.91,ESE,110,0.0,0.0,93,0.00,,,0.01,Wunderground v.1.13,2013-09-26 04:50:00,